Time;durP1;ratioP1;P1;durP2;ratioP2;P2;SDS_P1;SDS_P2;PMS_P1;PMS_P2;Temp;Humidity;BMP_temperature;BMP_pressure;BME280_temperature;BME280_humidity;BME280_pressure;Samples;Min_cycle;Max_cycle;Signal;HPM_P1;HPM_P2
2023/04/16 00:00:14;;;;;;;69.03;30.85;;;9.40;99.90;;;;;;5073137;28;20044;-69
2023/04/16 00:02:40;;;;;;;72.72;30.65;;;9.40;99.90;;;;;;5072560;28;20033;-69
2023/04/16 00:05:06;;;;;;;66.93;29.70;;;9.40;99.90;;;;;;5073106;28;20048;-69
2023/04/16 00:07:32;;;;;;;63.15;30.05;;;9.40;99.90;;;;;;5074829;28;20041;-69
2023/04/16 00:09:57;;;;;;;70.65;31.60;;;9.50;99.90;;;;;;5073263;28;20037;-69
2023/04/16 00:12:23;;;;;;;66.22;30.70;;;9.40;99.90;;;;;;5074386;28;20042;-69
2023/04/16 00:14:48;;;;;;;72.05;31.98;;;9.40;99.90;;;;;;5073145;28;20098;-69
2023/04/16 00:17:15;;;;;;;73.05;31.35;;;9.40;99.90;;;;;;5073407;28;20044;-69
2023/04/16 00:19:41;;;;;;;68.32;31.45;;;9.40;99.90;;;;;;5073040;28;20045;-69
2023/04/16 00:22:06;;;;;;;64.30;29.98;;;9.40;99.90;;;;;;5072564;28;20132;-69
2023/04/16 00:24:32;;;;;;;73.78;31.33;;;9.40;99.90;;;;;;5072704;28;20043;-69
2023/04/16 00:26:58;;;;;;;55.55;29.52;;;9.40;99.90;;;;;;5072917;28;20044;-69
2023/04/16 00:29:24;;;;;;;62.53;30.35;;;9.40;99.90;;;;;;5056138;28;20488;-69
2023/04/16 00:31:50;;;;;;;63.38;32.45;;;9.40;99.90;;;;;;5072486;28;20086;-69
2023/04/16 00:34:15;;;;;;;73.65;31.17;;;9.40;99.90;;;;;;5072570;28;20131;-69
2023/04/16 00:36:41;;;;;;;67.78;31.33;;;9.40;99.90;;;;;;5072481;28;20076;-69
2023/04/16 00:39:06;;;;;;;76.85;32.83;;;9.40;99.90;;;;;;5073984;28;20047;-69
2023/04/16 00:41:32;;;;;;;66.63;31.05;;;9.40;99.90;;;;;;5072260;28;20041;-69
2023/04/16 00:43:58;;;;;;;62.17;29.85;;;9.40;99.90;;;;;;5072623;28;20036;-69
2023/04/16 00:46:24;;;;;;;59.85;28.58;;;9.40;99.90;;;;;;5072324;28;20510;-69
2023/04/16 00:48:52;;;;;;;61.20;29.83;;;9.50;99.90;;;;;;5072238;28;20051;-69
2023/04/16 00:51:21;;;;;;;57.65;28.20;;;9.40;99.90;;;;;;5072152;28;20097;-69
2023/04/16 00:53:47;;;;;;;67.80;30.95;;;9.40;99.90;;;;;;5073277;28;20041;-69
2023/04/16 00:56:13;;;;;;;72.38;31.30;;;9.40;99.90;;;;;;5073710;28;20596;-69
2023/04/16 00:58:39;;;;;;;63.25;30.27;;;9.40;99.90;;;;;;5072032;28;20047;-69
2023/04/16 01:01:05;;;;;;;71.53;32.42;;;9.40;99.90;;;;;;5072096;28;20053;-69
2023/04/16 01:03:38;;;;;;;67.35;31.05;;;9.40;99.90;;;;;;5072085;28;20516;-69
2023/04/16 01:06:06;;;;;;;61.50;29.55;;;9.40;99.90;;;;;;5072079;28;20098;-69
2023/04/16 01:08:32;;;;;;;69.35;32.08;;;9.40;99.90;;;;;;5072034;28;20532;-69
2023/04/16 01:10:57;;;;;;;63.28;29.05;;;9.40;99.90;;;;;;5071900;28;20125;-69
2023/04/16 01:13:23;;;;;;;76.93;33.47;;;9.40;99.90;;;;;;5071970;28;20102;-69
2023/04/16 01:15:49;;;;;;;74.50;32.08;;;9.40;99.90;;;;;;5071093;28;20049;-69
2023/04/16 01:18:20;;;;;;;82.10;33.03;;;9.30;99.90;;;;;;5071936;28;20135;-69
2023/04/16 01:20:49;;;;;;;74.70;31.98;;;9.40;99.90;;;;;;5071710;28;20411;-69
2023/04/16 01:23:17;;;;;;;74.05;32.10;;;9.30;99.90;;;;;;5073087;28;20037;-69
2023/04/16 01:25:43;;;;;;;71.25;30.60;;;9.40;99.90;;;;;;5072079;28;20123;-69
2023/04/16 01:28:08;;;;;;;71.28;32.83;;;9.40;99.90;;;;;;5071853;28;20588;-69
2023/04/16 01:30:34;;;;;;;83.50;33.70;;;9.40;99.90;;;;;;5071681;28;20040;-69
2023/04/16 01:32:59;;;;;;;65.68;30.77;;;9.40;99.90;;;;;;5071738;28;20063;-69
2023/04/16 01:35:25;;;;;;;79.85;33.53;;;9.40;99.90;;;;;;5071672;28;20123;-69
2023/04/16 01:37:51;;;;;;;71.43;31.35;;;9.40;99.90;;;;;;5071729;28;20501;-69
2023/04/16 01:40:17;;;;;;;80.63;33.67;;;9.40;99.90;;;;;;5071580;28;20036;-69
2023/04/16 01:42:43;;;;;;;75.15;30.98;;;9.40;99.90;;;;;;5071579;28;20070;-69
2023/04/16 01:45:09;;;;;;;77.22;32.60;;;9.40;99.90;;;;;;5071915;28;20041;-69
2023/04/16 01:47:34;;;;;;;87.47;33.95;;;9.40;99.90;;;;;;5071847;28;20497;-69
2023/04/16 01:50:00;;;;;;;81.82;33.17;;;9.40;99.90;;;;;;5072825;28;20044;-69
2023/04/16 01:52:26;;;;;;;85.10;34.05;;;9.30;99.90;;;;;;5071514;28;20108;-69
2023/04/16 01:54:52;;;;;;;91.10;32.92;;;9.40;99.90;;;;;;5071525;28;20037;-69
2023/04/16 01:57:17;;;;;;;91.85;34.90;;;9.40;99.90;;;;;;5071670;28;20040;-69
2023/04/16 01:59:43;;;;;;;89.30;35.10;;;9.40;99.90;;;;;;5071824;28;20115;-69
2023/04/16 02:02:10;;;;;;;81.57;31.58;;;9.40;99.90;;;;;;5071339;28;20497;-69
2023/04/16 02:04:41;;;;;;;91.30;35.30;;;9.40;99.90;;;;;;5071644;28;20400;-69
2023/04/16 02:07:07;;;;;;;84.70;32.67;;;9.30;99.90;;;;;;5071417;28;20489;-69
2023/04/16 02:09:35;;;;;;;89.30;34.92;;;9.40;99.90;;;;;;5071477;28;20044;-69
2023/04/16 02:12:02;;;;;;;88.07;34.05;;;9.30;99.90;;;;;;5054565;28;20045;-69
2023/04/16 02:14:31;;;;;;;79.47;33.10;;;9.30;99.90;;;;;;5071344;28;20115;-69
2023/04/16 02:16:56;;;;;;;72.10;33.10;;;9.40;99.90;;;;;;5071271;28;20558;-69
2023/04/16 02:19:22;;;;;;;72.68;32.88;;;9.30;99.90;;;;;;5071306;28;20048;-69
2023/04/16 02:21:50;;;;;;;66.97;31.48;;;9.30;99.90;;;;;;5071111;28;20036;-69
2023/04/16 02:24:15;;;;;;;68.25;32.53;;;9.30;99.90;;;;;;5071484;28;20044;-69
2023/04/16 02:26:41;;;;;;;48.85;28.65;;;9.30;99.90;;;;;;5073143;28;20404;-69
2023/04/16 02:29:07;;;;;;;45.65;28.95;;;9.20;99.90;;;;;;5074979;28;20036;-69
2023/04/16 02:31:32;;;;;;;54.83;31.20;;;9.30;99.90;;;;;;5074820;28;20045;-69
2023/04/16 02:33:58;;;;;;;59.33;31.30;;;9.20;99.90;;;;;;5074840;28;20179;-69
2023/04/16 02:36:24;;;;;;;63.55;31.98;;;9.20;99.90;;;;;;5074754;28;20051;-69
2023/04/16 02:38:50;;;;;;;56.40;28.50;;;9.10;99.90;;;;;;5075036;28;20055;-69
2023/04/16 02:41:16;;;;;;;51.35;29.90;;;9.20;99.90;;;;;;5074559;28;20432;-69
2023/04/16 02:43:41;;;;;;;61.35;29.77;;;9.20;99.90;;;;;;5074715;28;20048;-69
2023/04/16 02:46:07;;;;;;;64.57;30.92;;;9.30;99.90;;;;;;5074615;28;20048;-69
2023/04/16 02:48:32;;;;;;;66.90;33.25;;;9.20;99.90;;;;;;5074601;28;20120;-69
2023/04/16 02:50:58;;;;;;;74.05;32.13;;;9.20;99.90;;;;;;5074480;28;20044;-69
2023/04/16 02:53:24;;;;;;;73.40;34.15;;;9.20;99.90;;;;;;5074735;28;20048;-69
2023/04/16 02:55:54;;;;;;;73.93;34.53;;;9.10;99.90;;;;;;5074462;28;20040;-69
2023/04/16 02:58:21;;;;;;;68.72;33.03;;;9.20;99.90;;;;;;5074246;28;20139;-69
2023/04/16 03:00:47;;;;;;;66.53;31.85;;;9.20;99.90;;;;;;5074229;28;20098;-69
2023/04/16 03:03:13;;;;;;;70.38;32.80;;;9.20;99.90;;;;;;5074374;28;20400;-69
2023/04/16 03:05:39;;;;;;;77.78;34.10;;;9.20;99.90;;;;;;5074287;28;20079;-69
2023/04/16 03:08:05;;;;;;;73.95;34.25;;;9.10;99.90;;;;;;5074269;28;20072;-69
2023/04/16 03:10:31;;;;;;;67.57;33.28;;;9.20;99.90;;;;;;5074158;28;20464;-69
2023/04/16 03:12:56;;;;;;;82.13;35.88;;;9.10;99.90;;;;;;5074121;28;20123;-69
2023/04/16 03:15:22;;;;;;;56.92;31.52;;;9.10;99.90;;;;;;5074417;28;20036;-69
2023/04/16 03:17:48;;;;;;;72.10;33.97;;;9.10;99.90;;;;;;5074350;28;20484;-69
2023/04/16 03:20:15;;;;;;;65.22;32.60;;;9.10;99.90;;;;;;5073964;28;20496;-69
2023/04/16 03:22:41;;;;;;;58.65;31.38;;;9.10;99.90;;;;;;5075177;28;20036;-69
2023/04/16 03:25:07;;;;;;;79.18;35.80;;;9.10;99.90;;;;;;5073945;28;20053;-69
2023/04/16 03:27:33;;;;;;;78.05;35.15;;;9.10;99.90;;;;;;5073879;28;20044;-69
2023/04/16 03:29:59;;;;;;;57.45;31.92;;;9.10;99.90;;;;;;5074113;28;20036;-69
2023/04/16 03:32:25;;;;;;;76.63;38.20;;;9.20;99.90;;;;;;5073744;28;20622;-69
2023/04/16 03:34:51;;;;;;;63.00;33.58;;;9.10;99.90;;;;;;5075260;28;20046;-69
2023/04/16 03:37:16;;;;;;;70.72;34.83;;;9.10;99.90;;;;;;5073290;28;20040;-69
2023/04/16 03:39:42;;;;;;;66.78;34.22;;;9.10;99.90;;;;;;5073431;28;20045;-69
2023/04/16 03:42:08;;;;;;;71.03;35.63;;;9.10;99.90;;;;;;5073513;28;20067;-69
2023/04/16 03:44:33;;;;;;;57.05;32.63;;;9.20;99.90;;;;;;5073562;28;20044;-69
2023/04/16 03:46:59;;;;;;;69.75;36.80;;;9.10;99.90;;;;;;5073504;28;20044;-68
2023/04/16 03:49:25;;;;;;;74.90;36.92;;;9.10;99.90;;;;;;5073484;28;20048;-68
2023/04/16 03:51:50;;;;;;;58.53;34.75;;;9.10;99.90;;;;;;5074602;28;20080;-69
2023/04/16 03:54:16;;;;;;;59.05;33.85;;;9.00;99.90;;;;;;5073394;28;20043;-69
2023/04/16 03:56:42;;;;;;;72.45;37.15;;;9.10;99.90;;;;;;5073461;28;20040;-69
2023/04/16 03:59:08;;;;;;;67.55;35.05;;;9.10;99.90;;;;;;5073310;28;20531;-69
2023/04/16 04:01:34;;;;;;;65.13;36.22;;;9.10;99.90;;;;;;5073100;28;20592;-69
2023/04/16 04:04:00;;;;;;;63.45;33.58;;;9.10;99.90;;;;;;5073238;28;20123;-69
2023/04/16 04:06:26;;;;;;;71.28;35.70;;;9.10;99.90;;;;;;5073359;28;20047;-69
2023/04/16 04:08:52;;;;;;;69.55;36.08;;;9.10;99.90;;;;;;5073373;28;20041;-69
2023/04/16 04:11:18;;;;;;;64.05;34.72;;;9.00;99.90;;;;;;5073207;28;20080;-69
2023/04/16 04:13:43;;;;;;;74.25;36.95;;;9.10;99.90;;;;;;5072945;28;20454;-69
2023/04/16 04:16:09;;;;;;;68.38;35.03;;;9.10;99.90;;;;;;5072866;28;20041;-69
2023/04/16 04:18:35;;;;;;;67.93;34.55;;;9.10;99.90;;;;;;5072833;28;20036;-69
2023/04/16 04:21:05;;;;;;;79.47;36.17;;;9.00;99.90;;;;;;5072692;28;20177;-69
2023/04/16 04:23:31;;;;;;;63.88;35.65;;;9.10;99.90;;;;;;5072741;28;20501;-69
2023/04/16 04:25:56;;;;;;;66.47;34.95;;;9.00;99.90;;;;;;5072719;28;20051;-69
2023/04/16 04:28:22;;;;;;;50.53;30.23;;;9.00;99.90;;;;;;5072696;28;20040;-69
2023/04/16 04:30:48;;;;;;;59.78;32.50;;;9.00;99.90;;;;;;5072519;28;20041;-69
2023/04/16 04:33:13;;;;;;;57.97;32.25;;;9.00;99.90;;;;;;5072574;28;20143;-69
2023/04/16 04:35:39;;;;;;;67.32;35.78;;;9.00;99.90;;;;;;5074045;28;20040;-69
2023/04/16 04:38:04;;;;;;;61.45;32.90;;;9.10;99.90;;;;;;5072452;28;20127;-69
2023/04/16 04:40:30;;;;;;;66.40;35.58;;;9.00;99.90;;;;;;5073522;28;20167;-69
2023/04/16 04:42:56;;;;;;;54.85;32.88;;;9.00;99.90;;;;;;5072364;28;20121;-69
2023/04/16 04:45:24;;;;;;;59.60;34.10;;;9.00;99.90;;;;;;5072361;28;20055;-69
2023/04/16 04:47:51;;;;;;;57.05;32.63;;;9.00;99.90;;;;;;5072592;28;20063;-69
2023/04/16 04:50:16;;;;;;;52.97;32.58;;;9.00;99.90;;;;;;5072432;28;20130;-69
2023/04/16 04:52:42;;;;;;;65.10;34.05;;;9.00;99.90;;;;;;5072148;28;20465;-69
2023/04/16 04:55:08;;;;;;;52.50;31.38;;;9.00;99.90;;;;;;5072186;28;20115;-69
2023/04/16 04:57:33;;;;;;;66.10;34.25;;;9.00;99.90;;;;;;5072085;28;20033;-69
2023/04/16 05:00:01;;;;;;;48.88;29.05;;;9.00;99.90;;;;;;5072194;28;20048;-69
2023/04/16 05:02:27;;;;;;;54.00;31.50;;;9.00;99.90;;;;;;5071994;28;20047;-69
2023/04/16 05:04:53;;;;;;;59.03;31.67;;;9.00;99.90;;;;;;5072062;28;20036;-69
2023/04/16 05:07:18;;;;;;;57.47;30.10;;;9.00;99.90;;;;;;5072290;28;20040;-69
2023/04/16 05:09:44;;;;;;;57.90;31.23;;;9.00;99.90;;;;;;5072030;28;20046;-69
2023/04/16 05:12:09;;;;;;;57.60;31.25;;;9.00;99.90;;;;;;5071935;28;20109;-69
2023/04/16 05:14:35;;;;;;;55.20;30.58;;;9.00;99.90;;;;;;5072244;28;20148;-69
2023/04/16 05:17:00;;;;;;;56.05;30.35;;;9.00;99.90;;;;;;5071932;28;20040;-69
2023/04/16 05:19:26;;;;;;;51.00;29.55;;;9.10;99.90;;;;;;5071918;28;20492;-69
2023/04/16 05:21:53;;;;;;;59.45;30.88;;;9.00;99.90;;;;;;5071760;28;20044;-69
2023/04/16 05:24:19;;;;;;;58.53;30.85;;;9.20;99.90;;;;;;5073108;28;20409;-69
2023/04/16 05:26:44;;;;;;;61.55;31.80;;;9.10;99.90;;;;;;5072128;28;20067;-69
2023/04/16 05:29:10;;;;;;;58.88;30.27;;;9.20;99.90;;;;;;5073045;28;20032;-69
2023/04/16 05:31:35;;;;;;;66.68;33.17;;;9.20;99.90;;;;;;5071709;28;20051;-69
2023/04/16 05:34:01;;;;;;;67.55;31.67;;;9.10;99.90;;;;;;5072023;28;20045;-69
2023/04/16 05:36:27;;;;;;;51.88;28.48;;;9.20;99.90;;;;;;5072015;28;20104;-69
2023/04/16 05:38:52;;;;;;;60.10;30.15;;;9.20;99.90;;;;;;5073179;28;20484;-69
2023/04/16 05:41:18;;;;;;;63.80;31.55;;;9.20;99.90;;;;;;5073117;28;20040;-69
2023/04/16 05:43:43;;;;;;;66.18;31.17;;;9.20;99.90;;;;;;5071643;28;20086;-69
2023/04/16 05:46:09;;;;;;;50.33;29.45;;;9.20;99.90;;;;;;5071638;28;20040;-69
2023/04/16 05:48:35;;;;;;;53.78;29.23;;;9.20;99.90;;;;;;5071593;28;20042;-69
2023/04/16 05:51:01;;;;;;;55.30;30.17;;;9.20;99.90;;;;;;5071795;28;20029;-69
2023/04/16 05:53:27;;;;;;;57.10;29.85;;;9.20;99.90;;;;;;5071586;28;20049;-69
2023/04/16 05:55:52;;;;;;;53.95;29.92;;;9.20;99.90;;;;;;5071809;28;20062;-69
2023/04/16 05:58:18;;;;;;;57.88;29.85;;;9.30;99.90;;;;;;5054662;28;20040;-69
2023/04/16 06:00:44;;;;;;;49.97;28.27;;;9.30;99.90;;;;;;5071809;28;20161;-69
2023/04/16 06:03:09;;;;;;;48.60;29.05;;;9.30;99.90;;;;;;5075501;28;20047;-69
2023/04/16 06:05:35;;;;;;;46.95;28.70;;;9.40;99.90;;;;;;5075601;28;20082;-69
2023/04/16 06:08:01;;;;;;;49.63;28.48;;;9.40;99.90;;;;;;5076888;28;20033;-69
2023/04/16 06:10:27;;;;;;;40.95;25.75;;;9.40;99.90;;;;;;5075248;28;20044;-69
2023/04/16 06:12:52;;;;;;;50.05;29.23;;;9.30;99.90;;;;;;5075311;28;20040;-69
2023/04/16 06:15:18;;;;;;;45.95;28.88;;;9.30;99.90;;;;;;5075230;28;20040;-68
2023/04/16 06:17:44;;;;;;;47.72;28.13;;;9.30;99.90;;;;;;5075222;28;20036;-68
2023/04/16 06:20:10;;;;;;;53.92;28.33;;;9.30;99.90;;;;;;5075060;28;20040;-68
2023/04/16 06:22:36;;;;;;;50.10;26.77;;;9.30;99.90;;;;;;5075028;28;20036;-69
2023/04/16 06:25:02;;;;;;;50.05;28.23;;;9.20;99.90;;;;;;5075337;28;20082;-69
2023/04/16 06:27:27;;;;;;;49.95;26.98;;;9.30;99.90;;;;;;5076540;28;20464;-69
2023/04/16 06:29:53;;;;;;;42.00;26.20;;;9.30;99.90;;;;;;5074937;28;20048;-69
2023/04/16 06:32:18;;;;;;;47.42;27.00;;;9.30;99.90;;;;;;5074833;28;20132;-69
2023/04/16 06:34:44;;;;;;;43.83;26.25;;;9.30;99.90;;;;;;5074862;28;20072;-69
2023/04/16 06:37:10;;;;;;;41.28;25.08;;;9.30;99.90;;;;;;5074837;28;20134;-69
2023/04/16 06:39:35;;;;;;;43.78;26.02;;;9.40;99.90;;;;;;5075348;28;20049;-68
2023/04/16 06:42:01;;;;;;;41.53;25.10;;;9.40;99.90;;;;;;5074643;28;20040;-68
2023/04/16 06:44:27;;;;;;;44.40;25.75;;;9.40;99.90;;;;;;5074760;28;20085;-68
2023/04/16 06:46:52;;;;;;;46.88;25.90;;;9.40;99.90;;;;;;5074745;28;20056;-68
2023/04/16 06:49:18;;;;;;;47.33;26.35;;;9.50;99.90;;;;;;5074685;28;20044;-68
2023/04/16 06:51:44;;;;;;;44.58;25.20;;;9.50;99.90;;;;;;5074785;28;20044;-69
2023/04/16 06:54:09;;;;;;;44.65;24.38;;;9.40;99.90;;;;;;5074691;28;20389;-69
2023/04/16 06:56:36;;;;;;;45.85;25.10;;;9.50;99.90;;;;;;5074553;28;20052;-69
2023/04/16 06:59:02;;;;;;;47.50;24.60;;;9.40;99.90;;;;;;5074703;28;20055;-69
2023/04/16 07:01:29;;;;;;;46.08;25.15;;;9.40;99.90;;;;;;5074355;28;20093;-69
2023/04/16 07:03:56;;;;;;;44.78;24.35;;;9.50;99.90;;;;;;5074426;28;20524;-68
2023/04/16 07:06:21;;;;;;;37.10;22.42;;;9.60;99.90;;;;;;5074412;28;20047;-68
2023/04/16 07:08:47;;;;;;;38.35;23.48;;;9.60;99.90;;;;;;5074330;28;20041;-68
2023/04/16 07:11:13;;;;;;;34.55;21.73;;;9.70;99.90;;;;;;5074446;28;20125;-68
2023/04/16 07:13:38;;;;;;;34.40;21.55;;;9.70;99.90;;;;;;5072941;28;20083;-68
2023/04/16 07:16:04;;;;;;;37.20;22.30;;;9.80;99.90;;;;;;5074190;28;20037;-68
2023/04/16 07:18:30;;;;;;;37.03;22.63;;;9.90;99.90;;;;;;5057728;28;20080;-69
2023/04/16 07:20:56;;;;;;;37.47;22.25;;;10.00;99.90;;;;;;5073997;28;20409;-68
2023/04/16 07:23:22;;;;;;;37.38;21.48;;;10.10;99.90;;;;;;5074118;28;20048;-68
2023/04/16 07:25:47;;;;;;;37.90;21.98;;;10.10;99.90;;;;;;5074323;28;20083;-69
2023/04/16 07:28:15;;;;;;;38.92;22.35;;;10.20;99.90;;;;;;5074360;28;20041;-68
2023/04/16 07:30:42;;;;;;;31.92;21.00;;;10.20;99.90;;;;;;5074044;28;20048;-68
2023/04/16 07:33:08;;;;;;;34.25;20.70;;;10.20;99.90;;;;;;5057281;28;20048;-68
2023/04/16 07:35:33;;;;;;;37.33;21.63;;;10.30;99.90;;;;;;5074663;28;20051;-68
2023/04/16 07:37:59;;;;;;;40.10;22.48;;;10.30;99.90;;;;;;5074102;28;20044;-68
2023/04/16 07:40:25;;;;;;;36.50;20.88;;;10.30;99.90;;;;;;5073909;28;20449;-68
2023/04/16 07:42:51;;;;;;;38.42;20.30;;;10.30;99.90;;;;;;5073754;28;20401;-68
2023/04/16 07:45:17;;;;;;;35.25;20.23;;;10.30;99.90;;;;;;5073615;28;20036;-68
2023/04/16 07:47:44;;;;;;;35.85;21.08;;;10.30;99.90;;;;;;5073633;28;20048;-68
2023/04/16 07:50:10;;;;;;;36.45;20.65;;;10.40;99.90;;;;;;5073581;28;20087;-68
2023/04/16 07:52:37;;;;;;;39.53;21.02;;;10.40;99.90;;;;;;5073429;28;20052;-68
2023/04/16 07:55:03;;;;;;;36.38;20.08;;;10.40;99.90;;;;;;5073749;28;20493;-68
2023/04/16 07:57:30;;;;;;;40.38;21.23;;;10.50;99.90;;;;;;5073481;28;20052;-69
2023/04/16 07:59:55;;;;;;;47.20;21.83;;;10.50;99.90;;;;;;5073346;28;20040;-68
2023/04/16 08:02:21;;;;;;;44.78;21.10;;;10.50;99.90;;;;;;5056426;28;20090;-68
2023/04/16 08:04:46;;;;;;;40.97;21.13;;;10.60;99.90;;;;;;5073207;28;20032;-68
2023/04/16 08:07:12;;;;;;;42.38;22.33;;;10.60;99.90;;;;;;5073204;28;20049;-68
2023/04/16 08:09:47;;;;;;;35.40;21.45;;;10.70;99.90;;;;;;5074439;28;20032;-68
2023/04/16 08:12:13;;;;;;;46.95;20.77;;;10.70;99.90;;;;;;5073039;28;20470;-71
2023/04/16 08:14:40;;;;;;;45.20;21.50;;;10.70;99.90;;;;;;5073165;28;20041;-71
2023/04/16 08:17:06;;;;;;;48.40;22.25;;;10.70;99.90;;;;;;5073012;28;20110;-71
2023/04/16 08:19:31;;;;;;;44.35;21.27;;;10.80;99.90;;;;;;5073013;28;20041;-71
2023/04/16 08:21:57;;;;;;;38.13;20.10;;;10.90;99.90;;;;;;5073066;28;20052;-71
2023/04/16 08:24:23;;;;;;;35.80;18.60;;;10.90;99.90;;;;;;5072567;28;20044;-71
2023/04/16 08:26:49;;;;;;;38.55;19.38;;;10.90;99.90;;;;;;5074804;28;20043;-71
2023/04/16 08:29:14;;;;;;;42.78;19.50;;;11.00;99.90;;;;;;5074202;28;20047;-71
2023/04/16 08:31:40;;;;;;;37.90;19.10;;;11.00;99.90;;;;;;5072725;28;20171;-71
2023/04/16 08:34:06;;;;;;;46.33;21.83;;;11.10;99.90;;;;;;5073209;28;20045;-71
2023/04/16 08:36:32;;;;;;;39.30;20.65;;;11.20;99.90;;;;;;5074142;28;20508;-71
2023/04/16 08:38:57;;;;;;;42.42;19.60;;;11.20;99.90;;;;;;5073084;28;20045;-71
2023/04/16 08:41:23;;;;;;;33.17;18.70;;;11.20;99.90;;;;;;5073238;28;20036;-71
2023/04/16 08:43:52;;;;;;;39.28;18.95;;;11.20;99.90;;;;;;5072586;28;20467;-71
2023/04/16 08:46:21;;;;;;;42.88;20.20;;;11.20;99.90;;;;;;5072792;28;20047;-71
2023/04/16 08:48:50;;;;;;;38.35;19.15;;;11.20;99.90;;;;;;5073963;28;20121;-72
2023/04/16 08:51:18;;;;;;;35.28;20.02;;;11.30;99.90;;;;;;5073822;28;20040;-72
2023/04/16 08:53:53;;;;;;;41.42;20.30;;;11.30;99.90;;;;;;5073938;28;20080;-72
2023/04/16 08:56:23;;;;;;;40.20;19.58;;;11.50;99.90;;;;;;5073958;28;20484;-72
2023/04/16 08:58:50;;;;;;;30.35;18.38;;;11.60;99.90;;;;;;5074442;28;20115;-72
2023/04/16 09:01:20;;;;;;;39.97;18.55;;;11.70;99.90;;;;;;5073461;28;20507;-72
2023/04/16 09:03:47;;;;;;;34.45;18.52;;;11.90;99.90;;;;;;5074753;28;20053;-72
2023/04/16 09:06:14;;;;;;;34.65;18.80;;;12.10;99.90;;;;;;5072753;28;20044;-71
2023/04/16 09:08:40;;;;;;;33.13;18.30;;;12.20;99.90;;;;;;5073468;28;20090;-71
2023/04/16 09:11:06;;;;;;;32.35;18.08;;;12.20;99.90;;;;;;5072074;28;20056;-72
2023/04/16 09:13:32;;;;;;;30.88;17.58;;;12.30;99.90;;;;;;5072095;28;20101;-72
2023/04/16 09:15:58;;;;;;;31.25;16.48;;;12.30;99.90;;;;;;5072486;28;20075;-72
2023/04/16 09:18:24;;;;;;;29.75;16.23;;;12.30;99.90;;;;;;5072114;28;20044;-72
2023/04/16 09:20:50;;;;;;;23.17;14.77;;;12.30;99.90;;;;;;5073089;28;20067;-72
2023/04/16 09:23:17;;;;;;;26.88;16.05;;;12.50;99.90;;;;;;5072085;28;20107;-72
2023/04/16 09:25:43;;;;;;;24.92;16.67;;;12.50;99.90;;;;;;5071880;28;20040;-71
2023/04/16 09:28:09;;;;;;;28.70;15.68;;;12.70;99.90;;;;;;5072316;28;20052;-71
2023/04/16 09:30:36;;;;;;;26.80;14.77;;;12.80;99.90;;;;;;5072219;28;20094;-72
2023/04/16 09:33:12;;;;;;;26.08;15.55;;;13.00;99.90;;;;;;5071983;28;20040;-72
2023/04/16 09:35:46;;;;;;;27.67;15.60;;;13.20;99.90;;;;;;5054383;28;20040;-72
2023/04/16 09:38:12;;;;;;;28.05;15.35;;;13.30;99.90;;;;;;5071889;28;20036;-71
2023/04/16 09:40:38;;;;;;;29.45;14.18;;;13.40;99.90;;;;;;5071692;28;20082;-71
2023/04/16 09:43:10;;;;;;;23.98;14.60;;;13.50;99.90;;;;;;5071868;28;20093;-71
2023/04/16 09:46:03;;;;;;;21.88;13.48;;;13.50;99.90;;;;;;5071988;28;20048;-71
2023/04/16 09:48:33;;;;;;;23.52;13.80;;;13.60;99.90;;;;;;5069037;28;20049;-71
2023/04/16 09:50:59;;;;;;;19.98;13.13;;;13.70;99.90;;;;;;5073292;28;20093;-71
2023/04/16 09:53:25;;;;;;;22.70;13.35;;;13.90;99.90;;;;;;5073299;28;20097;-71
2023/04/16 09:55:54;;;;;;;22.38;14.07;;;14.00;99.90;;;;;;5073029;28;20440;-71
2023/04/16 09:58:21;;;;;;;25.20;14.05;;;14.10;99.90;;;;;;5072983;28;20045;-71
2023/04/16 10:00:47;;;;;;;22.13;13.60;;;14.30;99.90;;;;;;5071421;28;20049;-71
2023/04/16 10:03:12;;;;;;;22.50;13.40;;;14.40;99.90;;;;;;5071826;28;20074;-72
2023/04/16 10:05:38;;;;;;;21.35;13.20;;;14.60;99.90;;;;;;5071590;28;20449;-72
2023/04/16 10:08:10;;;;;;;23.00;14.65;;;14.80;99.90;;;;;;5072944;28;20035;-72
2023/04/16 10:10:37;;;;;;;23.30;14.23;;;15.00;99.90;;;;;;5073004;28;20072;-72
2023/04/16 10:13:03;;;;;;;23.65;13.73;;;15.00;99.90;;;;;;5071560;28;20441;-73
2023/04/16 10:15:29;;;;;;;21.60;13.50;;;15.20;99.90;;;;;;5072928;28;20048;-73
2023/04/16 10:17:56;;;;;;;22.95;12.68;;;15.30;99.90;;;;;;5072845;28;20076;-72
2023/04/16 10:20:23;;;;;;;18.80;12.90;;;15.30;99.90;;;;;;5071512;28;20598;-72
2023/04/16 10:22:49;;;;;;;18.50;12.77;;;15.40;99.90;;;;;;5071372;28;20040;-72
2023/04/16 10:25:15;;;;;;;20.67;12.85;;;15.60;99.90;;;;;;5072711;28;20033;-72
2023/04/16 10:27:42;;;;;;;18.02;12.60;;;15.70;99.90;;;;;;5071662;28;20040;-72
2023/04/16 10:30:09;;;;;;;25.52;13.82;;;15.90;99.90;;;;;;5071562;28;20063;-72
2023/04/16 10:32:36;;;;;;;18.88;11.73;;;16.10;99.90;;;;;;5072674;28;20496;-72
2023/04/16 10:35:03;;;;;;;18.38;11.77;;;16.20;99.90;;;;;;5071721;28;20055;-72
2023/04/16 10:37:30;;;;;;;17.13;11.82;;;16.40;99.90;;;;;;5071463;28;20076;-72
2023/04/16 10:39:56;;;;;;;18.70;11.60;;;16.60;99.90;;;;;;5054680;28;20049;-72
2023/04/16 10:42:22;;;;;;;19.77;11.48;;;16.80;99.90;;;;;;5072473;28;20051;-72
2023/04/16 10:44:48;;;;;;;21.13;11.82;;;17.00;99.90;;;;;;5072540;28;20040;-72
2023/04/16 10:47:14;;;;;;;20.15;11.68;;;17.10;99.90;;;;;;5073872;28;20128;-72
2023/04/16 10:49:40;;;;;;;18.90;12.27;;;17.30;99.90;;;;;;5076320;28;20082;-72
2023/04/16 10:52:15;;;;;;;19.55;12.13;;;17.40;99.90;;;;;;5074738;28;20056;-72
2023/04/16 10:54:41;;;;;;;15.75;11.68;;;17.80;99.40;;;;;;5075027;28;20048;-72
2023/04/16 10:57:11;;;;;;;20.75;11.40;;;17.90;98.70;;;;;;5074886;28;20100;-72
2023/04/16 10:59:38;;;;;;;16.40;11.05;;;18.00;97.80;;;;;;5075867;28;20040;-72
2023/04/16 11:02:12;;;;;;;22.65;11.55;;;18.00;97.30;;;;;;5075945;28;20440;-72
2023/04/16 11:04:41;;;;;;;17.35;11.73;;;17.90;96.10;;;;;;5076138;28;20115;-72
2023/04/16 11:07:16;;;;;;;17.67;12.30;;;17.70;96.60;;;;;;5075831;28;20454;-72
2023/04/16 11:10:03;;;;;;;16.98;11.82;;;17.60;96.50;;;;;;5075954;28;20047;-72
2023/04/16 11:12:28;;;;;;;16.50;11.32;;;17.40;96.10;;;;;;5074476;28;20041;-72
2023/04/16 11:15:02;;;;;;;17.88;11.40;;;17.40;97.00;;;;;;5074526;28;20082;-72
2023/04/16 11:17:35;;;;;;;17.50;11.13;;;17.50;96.70;;;;;;5077068;28;20119;-72
2023/04/16 11:20:02;;;;;;;18.30;11.35;;;17.40;96.70;;;;;;5058058;28;20041;-72
2023/04/16 11:22:28;;;;;;;20.00;12.32;;;17.30;96.70;;;;;;5076029;28;20036;-72
2023/04/16 11:24:55;;;;;;;18.75;11.50;;;17.30;96.40;;;;;;5057484;28;20083;-72
2023/04/16 11:27:25;;;;;;;16.98;11.43;;;17.20;96.20;;;;;;5075283;28;20066;-72
2023/04/16 11:30:10;;;;;;;18.08;12.32;;;17.10;96.80;;;;;;5074034;28;20041;-72
2023/04/16 11:32:37;;;;;;;19.88;12.23;;;17.20;96.70;;;;;;5072969;28;20048;-72
2023/04/16 11:35:18;;;;;;;19.73;12.05;;;17.20;96.60;;;;;;5073926;28;20080;-72
2023/04/16 11:37:45;;;;;;;17.42;11.57;;;17.20;96.00;;;;;;5073864;28;20041;-72
2023/04/16 11:40:11;;;;;;;19.25;11.85;;;17.10;96.60;;;;;;5073769;28;20497;-72
2023/04/16 11:42:39;;;;;;;19.55;11.63;;;17.10;96.40;;;;;;5057009;28;20039;-72
2023/04/16 11:45:10;;;;;;;20.77;11.57;;;17.00;96.30;;;;;;5074019;28;20040;-72
2023/04/16 11:47:52;;;;;;;17.80;11.30;;;17.00;96.20;;;;;;5073935;28;20431;-72
2023/04/16 11:50:23;;;;;;;17.25;11.52;;;17.10;96.20;;;;;;5073701;28;20044;-71
2023/04/16 11:52:50;;;;;;;16.92;11.18;;;17.10;96.30;;;;;;5073799;28;20084;-71
2023/04/16 11:55:16;;;;;;;19.75;11.70;;;17.10;96.10;;;;;;5075181;28;20047;-71
2023/04/16 11:57:41;;;;;;;19.45;12.05;;;17.10;96.00;;;;;;5073639;28;20119;-71
2023/04/16 12:00:11;;;;;;;17.05;11.23;;;17.20;95.80;;;;;;5072837;28;20032;-71
2023/04/16 12:02:39;;;;;;;17.23;10.55;;;17.20;95.90;;;;;;5073360;28;20041;-71
2023/04/16 12:05:07;;;;;;;18.95;11.02;;;17.20;96.00;;;;;;5073534;28;20056;-71
2023/04/16 12:07:44;;;;;;;25.35;12.38;;;17.20;96.20;;;;;;5073529;28;20071;-71
2023/04/16 12:10:10;;;;;;;23.45;12.52;;;17.20;95.50;;;;;;5073578;28;20076;-71
2023/04/16 12:12:36;;;;;;;22.25;13.52;;;17.20;95.80;;;;;;5073073;28;20071;-71
2023/04/16 12:15:02;;;;;;;23.40;12.85;;;17.20;96.10;;;;;;5073153;28;20127;-71
2023/04/16 12:17:32;;;;;;;24.15;12.68;;;17.10;96.50;;;;;;5073327;28;20123;-71
2023/04/16 12:20:00;;;;;;;20.80;12.27;;;17.20;96.70;;;;;;5073079;28;20447;-71
2023/04/16 12:22:34;;;;;;;21.70;11.38;;;17.30;96.50;;;;;;5072896;28;20056;-71
2023/04/16 12:25:02;;;;;;;18.42;11.32;;;17.50;95.70;;;;;;5073252;28;20040;-71
2023/04/16 12:27:47;;;;;;;19.63;12.25;;;17.60;95.80;;;;;;5073728;28;20056;-71
2023/04/16 12:30:18;;;;;;;23.42;12.23;;;17.70;95.50;;;;;;5072823;28;20557;-71